sensor_id;sensor_type;location;lat;lon;timestamp;pressure;altitude;pressure_sealevel;temperature;humidity
5679;BME280;2862;52.560;13.566;2022-10-31T00:09:25;100980.28;;;13.93;90.33
5679;BME280;2862;52.560;13.566;2022-10-31T00:19:29;100983.41;;;13.78;91.89
5679;BME280;2862;52.560;13.566;2022-10-31T00:29:32;100992.19;;;13.71;93.16
5679;BME280;2862;52.560;13.566;2022-10-31T00:39:37;101003.22;;;13.77;92.46
5679;BME280;2862;52.560;13.566;2022-10-31T00:49:40;101003.50;;;13.74;91.94
5679;BME280;2862;52.560;13.566;2022-10-31T00:59:44;101007.72;;;13.58;93.24
5679;BME280;2862;52.560;13.566;2022-10-31T01:09:47;101008.25;;;13.42;90.76
5679;BME280;2862;52.560;13.566;2022-10-31T01:19:52;101020.84;;;13.32;90.75
5679;BME280;2862;52.560;13.566;2022-10-31T01:29:55;101018.03;;;13.33;89.27
5679;BME280;2862;52.560;13.566;2022-10-31T01:39:59;101024.94;;;13.26;92.09
5679;BME280;2862;52.560;13.566;2022-10-31T01:50:05;101023.28;;;13.44;91.68
5679;BME280;2862;52.560;13.566;2022-10-31T02:00:11;101017.47;;;13.39;89.69
5679;BME280;2862;52.560;13.566;2022-10-31T02:10:15;101023.81;;;13.38;90.27
5679;BME280;2862;52.560;13.566;2022-10-31T02:20:21;101030.34;;;13.45;90.50
5679;BME280;2862;52.560;13.566;2022-10-31T02:30:31;101030.75;;;13.41;91.06
5679;BME280;2862;52.560;13.566;2022-10-31T02:40:49;101023.00;;;13.57;92.67
5679;BME280;2862;52.560;13.566;2022-10-31T02:51:04;101026.28;;;13.61;91.12
5679;BME280;2862;52.560;13.566;2022-10-31T03:01:44;101026.94;;;13.53;90.93
5679;BME280;2862;52.560;13.566;2022-10-31T03:11:57;101041.34;;;13.33;89.12
5679;BME280;2862;52.560;13.566;2022-10-31T03:22:07;101053.25;;;13.09;86.29
5679;BME280;2862;52.560;13.566;2022-10-31T03:32:16;101051.88;;;13.15;89.63
5679;BME280;2862;52.560;13.566;2022-10-31T03:42:24;101059.53;;;13.19;90.69
5679;BME280;2862;52.560;13.566;2022-10-31T03:52:31;101076.16;;;13.13;92.22
5679;BME280;2862;52.560;13.566;2022-10-31T04:02:40;101086.03;;;13.13;92.96
5679;BME280;2862;52.560;13.566;2022-10-31T04:12:49;101085.97;;;13.24;93.00
5679;BME280;2862;52.560;13.566;2022-10-31T04:23:00;101094.91;;;13.34;93.64
5679;BME280;2862;52.560;13.566;2022-10-31T04:33:03;101092.09;;;13.36;94.07
5679;BME280;2862;52.560;13.566;2022-10-31T04:43:08;101099.47;;;13.43;93.64
5679;BME280;2862;52.560;13.566;2022-10-31T04:53:13;101109.94;;;13.37;94.62
5679;BME280;2862;52.560;13.566;2022-10-31T05:03:37;101105.34;;;13.27;95.06
5679;BME280;2862;52.560;13.566;2022-10-31T05:13:41;101101.50;;;13.20;95.58
5679;BME280;2862;52.560;13.566;2022-10-31T05:23:48;101111.28;;;13.21;95.00
5679;BME280;2862;52.560;13.566;2022-10-31T05:33:52;101121.03;;;13.22;95.08
5679;BME280;2862;52.560;13.566;2022-10-31T05:43:59;101123.09;;;13.19;94.85
5679;BME280;2862;52.560;13.566;2022-10-31T05:54:04;101126.31;;;13.13;95.00
5679;BME280;2862;52.560;13.566;2022-10-31T06:04:13;101128.81;;;13.05;95.55
5679;BME280;2862;52.560;13.566;2022-10-31T06:14:16;101137.84;;;13.24;94.45
5679;BME280;2862;52.560;13.566;2022-10-31T06:24:27;101146.03;;;13.53;92.76
5679;BME280;2862;52.560;13.566;2022-10-31T06:34:36;101156.19;;;14.39;88.64
5679;BME280;2862;52.560;13.566;2022-10-31T06:44:42;101164.78;;;15.10;85.10
5679;BME280;2862;52.560;13.566;2022-10-31T06:55:18;101173.13;;;15.81;83.03
5679;BME280;2862;52.560;13.566;2022-10-31T07:05:25;101188.50;;;15.99;80.51
5679;BME280;2862;52.560;13.566;2022-10-31T07:15:32;101193.63;;;16.55;78.85
5679;BME280;2862;52.560;13.566;2022-10-31T07:25:36;101202.00;;;17.06;78.14
5679;BME280;2862;52.560;13.566;2022-10-31T07:36:06;101186.59;;;17.92;73.47
5679;BME280;2862;52.560;13.566;2022-10-31T07:46:10;101197.56;;;18.66;71.37
5679;BME280;2862;52.560;13.566;2022-10-31T07:56:32;101210.38;;;19.45;68.53
5679;BME280;2862;52.560;13.566;2022-10-31T08:06:36;101222.47;;;18.77;69.97
5679;BME280;2862;52.560;13.566;2022-10-31T08:16:52;101224.84;;;17.97;73.11
5679;BME280;2862;52.560;13.566;2022-10-31T08:26:59;101234.81;;;17.11;77.42
5679;BME280;2862;52.560;13.566;2022-10-31T08:37:02;101238.63;;;16.82;79.80
5679;BME280;2862;52.560;13.566;2022-10-31T08:47:14;101244.81;;;16.75;79.78
5679;BME280;2862;52.560;13.566;2022-10-31T08:57:18;101248.19;;;17.38;78.95
5679;BME280;2862;52.560;13.566;2022-10-31T09:07:23;101221.88;;;17.83;76.13
5679;BME280;2862;52.560;13.566;2022-10-31T09:17:27;101237.97;;;17.84;76.34
5679;BME280;2862;52.560;13.566;2022-10-31T09:28:06;101246.28;;;18.49;73.67
5679;BME280;2862;52.560;13.566;2022-10-31T09:38:11;101258.84;;;18.67;72.42
5679;BME280;2862;52.560;13.566;2022-10-31T09:48:27;101266.19;;;18.99;71.67
5679;BME280;2862;52.560;13.566;2022-10-31T09:58:51;101266.00;;;19.25;71.25
5679;BME280;2862;52.560;13.566;2022-10-31T10:09:00;101263.78;;;18.71;73.00
5679;BME280;2862;52.560;13.566;2022-10-31T10:19:27;101255.78;;;18.53;73.75
5679;BME280;2862;52.560;13.566;2022-10-31T10:29:40;101244.69;;;18.81;72.94
5679;BME280;2862;52.560;13.566;2022-10-31T10:39:47;101247.47;;;18.47;73.79
5679;BME280;2862;52.560;13.566;2022-10-31T10:49:53;101232.84;;;18.23;75.39
5679;BME280;2862;52.560;13.566;2022-10-31T10:59:57;101231.44;;;18.78;74.63
5679;BME280;2862;52.560;13.566;2022-10-31T11:10:11;101231.75;;;19.24;72.59
5679;BME280;2862;52.560;13.566;2022-10-31T11:20:26;101234.81;;;19.21;72.93
5679;BME280;2862;52.560;13.566;2022-10-31T11:30:45;101215.53;;;18.99;73.75
5679;BME280;2862;52.560;13.566;2022-10-31T11:40:54;101211.59;;;19.18;72.99
5679;BME280;2862;52.560;13.566;2022-10-31T11:51:00;101200.56;;;19.44;72.25
5679;BME280;2862;52.560;13.566;2022-10-31T12:01:03;101212.72;;;19.48;71.67
5679;BME280;2862;52.560;13.566;2022-10-31T12:11:14;101205.31;;;19.34;71.43
5679;BME280;2862;52.560;13.566;2022-10-31T12:32:02;101194.63;;;19.41;72.11
5679;BME280;2862;52.560;13.566;2022-10-31T12:42:12;101181.25;;;19.39;71.93
5679;BME280;2862;52.560;13.566;2022-10-31T12:52:33;101173.09;;;19.39;71.79
5679;BME280;2862;52.560;13.566;2022-10-31T13:02:41;101174.09;;;19.38;72.13
5679;BME280;2862;52.560;13.566;2022-10-31T13:12:48;101175.25;;;19.44;72.31
5679;BME280;2862;52.560;13.566;2022-10-31T13:22:55;101167.50;;;19.32;73.17
5679;BME280;2862;52.560;13.566;2022-10-31T13:33:03;101159.06;;;19.27;73.70
5679;BME280;2862;52.560;13.566;2022-10-31T13:43:14;101152.84;;;19.10;74.38
5679;BME280;2862;52.560;13.566;2022-10-31T13:53:35;101145.06;;;18.91;75.34
5679;BME280;2862;52.560;13.566;2022-10-31T14:03:39;101142.88;;;18.87;75.84
5679;BME280;2862;52.560;13.566;2022-10-31T14:14:10;101140.88;;;18.72;76.65
5679;BME280;2862;52.560;13.566;2022-10-31T14:24:15;101120.38;;;18.53;77.83
5679;BME280;2862;52.560;13.566;2022-10-31T14:34:23;101126.97;;;18.43;78.61
5679;BME280;2862;52.560;13.566;2022-10-31T14:44:52;101119.69;;;18.35;78.98
5679;BME280;2862;52.560;13.566;2022-10-31T14:55:03;101111.56;;;18.19;79.65
5679;BME280;2862;52.560;13.566;2022-10-31T15:05:09;101108.34;;;18.07;80.42
5679;BME280;2862;52.560;13.566;2022-10-31T15:15:21;101100.00;;;17.92;81.44
5679;BME280;2862;52.560;13.566;2022-10-31T15:25:33;101101.09;;;17.57;83.20
5679;BME280;2862;52.560;13.566;2022-10-31T15:35:38;101098.13;;;17.00;87.56
5679;BME280;2862;52.560;13.566;2022-10-31T15:45:42;101105.28;;;16.65;89.71
5679;BME280;2862;52.560;13.566;2022-10-31T15:55:49;101110.41;;;16.51;90.70
5679;BME280;2862;52.560;13.566;2022-10-31T16:06:04;101100.94;;;16.46;91.05
5679;BME280;2862;52.560;13.566;2022-10-31T16:16:16;101115.41;;;16.45;90.26
5679;BME280;2862;52.560;13.566;2022-10-31T16:26:34;101110.44;;;16.33;90.09
5679;BME280;2862;52.560;13.566;2022-10-31T16:36:38;101117.28;;;16.27;90.20
5679;BME280;2862;52.560;13.566;2022-10-31T16:46:41;101110.91;;;16.10;91.09
5679;BME280;2862;52.560;13.566;2022-10-31T16:56:45;101109.59;;;15.79;91.96
5679;BME280;2862;52.560;13.566;2022-10-31T17:06:48;101098.78;;;15.51;93.46
5679;BME280;2862;52.560;13.566;2022-10-31T17:16:52;101098.53;;;15.17;95.01
5679;BME280;2862;52.560;13.566;2022-10-31T17:26:58;101096.22;;;14.85;95.84
5679;BME280;2862;52.560;13.566;2022-10-31T17:37:03;101088.91;;;14.68;95.67
5679;BME280;2862;52.560;13.566;2022-10-31T17:47:05;101087.97;;;14.30;98.15
5679;BME280;2862;52.560;13.566;2022-10-31T17:57:09;101085.84;;;14.24;98.59
5679;BME280;2862;52.560;13.566;2022-10-31T18:07:12;101078.63;;;14.34;98.04
5679;BME280;2862;52.560;13.566;2022-10-31T18:17:20;101082.16;;;14.34;97.79
5679;BME280;2862;52.560;13.566;2022-10-31T18:27:24;101071.66;;;14.41;97.39
5679;BME280;2862;52.560;13.566;2022-10-31T18:37:29;101059.19;;;14.59;96.12
5679;BME280;2862;52.560;13.566;2022-10-31T18:47:38;101056.66;;;14.48;95.00
5679;BME280;2862;52.560;13.566;2022-10-31T18:57:44;101048.16;;;14.43;97.44
5679;BME280;2862;52.560;13.566;2022-10-31T19:07:51;101034.88;;;14.51;96.49
5679;BME280;2862;52.560;13.566;2022-10-31T19:17:55;101038.34;;;14.61;96.99
5679;BME280;2862;52.560;13.566;2022-10-31T19:27:58;101029.59;;;14.59;96.91
5679;BME280;2862;52.560;13.566;2022-10-31T19:38:03;101022.66;;;14.38;99.42
5679;BME280;2862;52.560;13.566;2022-10-31T19:48:06;101019.59;;;14.13;100.00
5679;BME280;2862;52.560;13.566;2022-10-31T19:58:11;101019.06;;;13.80;100.00
5679;BME280;2862;52.560;13.566;2022-10-31T20:08:16;101001.38;;;13.49;100.00
5679;BME280;2862;52.560;13.566;2022-10-31T20:18:21;100992.13;;;13.22;100.00
5679;BME280;2862;52.560;13.566;2022-10-31T20:28:28;100981.66;;;13.19;100.00
5679;BME280;2862;52.560;13.566;2022-10-31T20:38:32;100978.78;;;13.11;100.00
5679;BME280;2862;52.560;13.566;2022-10-31T20:48:35;100982.72;;;12.97;100.00
5679;BME280;2862;52.560;13.566;2022-10-31T20:58:40;100978.06;;;12.99;100.00
5679;BME280;2862;52.560;13.566;2022-10-31T21:08:44;100963.91;;;12.88;100.00
5679;BME280;2862;52.560;13.566;2022-10-31T21:18:49;100964.94;;;12.96;100.00
5679;BME280;2862;52.560;13.566;2022-10-31T21:28:53;100945.16;;;12.97;100.00
5679;BME280;2862;52.560;13.566;2022-10-31T21:38:58;100947.41;;;13.02;100.00
5679;BME280;2862;52.560;13.566;2022-10-31T21:49:02;100930.75;;;13.18;100.00
5679;BME280;2862;52.560;13.566;2022-10-31T21:59:07;100911.09;;;13.17;100.00
5679;BME280;2862;52.560;13.566;2022-10-31T22:09:12;100916.03;;;13.12;100.00
5679;BME280;2862;52.560;13.566;2022-10-31T22:19:17;100898.09;;;12.93;100.00
5679;BME280;2862;52.560;13.566;2022-10-31T22:29:19;100893.41;;;12.86;100.00
5679;BME280;2862;52.560;13.566;2022-10-31T22:39:24;100906.13;;;12.93;100.00
5679;BME280;2862;52.560;13.566;2022-10-31T22:49:27;100896.81;;;13.07;100.00
5679;BME280;2862;52.560;13.566;2022-10-31T22:59:31;100882.97;;;13.12;100.00
5679;BME280;2862;52.560;13.566;2022-10-31T23:09:34;100863.06;;;13.05;100.00
5679;BME280;2862;52.560;13.566;2022-10-31T23:19:39;100839.19;;;12.92;100.00
5679;BME280;2862;52.560;13.566;2022-10-31T23:29:44;100839.75;;;12.95;100.00
5679;BME280;2862;52.560;13.566;2022-10-31T23:39:49;100819.41;;;13.12;100.00
5679;BME280;2862;52.560;13.566;2022-10-31T23:49:52;100807.28;;;13.08;100.00
5679;BME280;2862;52.560;13.566;2022-10-31T23:59:56;100804.16;;;13.22;100.00
